Time;durP1;ratioP1;P1;durP2;ratioP2;P2;SDS_P1;SDS_P2;PMS_P1;PMS_P2;Temp;Humidity;BMP_temperature;BMP_pressure;BME280_temperature;BME280_humidity;BME280_pressure;Samples;Min_cycle;Max_cycle;Signal;HPM_P1;HPM_P2
2022/09/06 00:00:56;;;;;;;4.43;4.00;;;;;;;17.04;100.00;101438.75;5011947;28;20288;-87
2022/09/06 00:03:21;;;;;;;6.40;3.95;;;;;;;17.05;100.00;101447.69;5012398;28;20025;-87
2022/09/06 00:05:47;;;;;;;7.57;4.10;;;;;;;17.15;100.00;101473.84;5012864;28;20030;-87
2022/09/06 00:08:13;;;;;;;5.20;4.20;;;;;;;17.14;100.00;101472.25;5012509;28;20239;-87
2022/09/06 00:10:39;;;;;;;9.18;4.45;;;;;;;17.17;100.00;101486.00;5011907;28;20088;-87
2022/09/06 00:13:07;;;;;;;4.78;4.07;;;;;;;17.13;100.00;101506.63;5012195;28;20034;-86
2022/09/06 00:15:34;;;;;;;6.20;4.18;;;;;;;17.14;100.00;101553.47;5014151;28;20037;-86
2022/09/06 00:18:01;;;;;;;5.57;4.40;;;;;;;17.14;100.00;101567.00;5014107;28;20022;-87
2022/09/06 00:20:28;;;;;;;5.10;4.33;;;;;;;17.02;100.00;101559.25;5013427;28;20284;-87
2022/09/06 00:22:58;;;;;;;6.45;4.80;;;;;;;17.00;100.00;101581.16;5013489;28;20025;-87
2022/09/06 00:25:26;;;;;;;4.85;4.35;;;;;;;17.00;100.00;101594.72;5012738;28;20033;-86
2022/09/06 00:27:59;;;;;;;6.93;5.03;;;;;;;16.93;100.00;101575.25;5012011;28;20022;-87
2022/09/06 00:30:25;;;;;;;6.20;4.78;;;;;;;16.95;100.00;101573.13;5011687;28;20108;-86
2022/09/06 00:32:50;;;;;;;7.68;5.20;;;;;;;16.94;100.00;101579.59;5011420;28;20022;-86
2022/09/06 00:35:17;;;;;;;7.67;5.30;;;;;;;16.93;100.00;101589.59;5012056;28;20095;-86
2022/09/06 00:37:43;;;;;;;8.57;5.00;;;;;;;16.92;100.00;101562.81;5012133;28;20026;-86
2022/09/06 00:40:08;;;;;;;10.20;5.50;;;;;;;16.95;100.00;101573.13;5011595;28;20028;-86
2022/09/06 00:42:36;;;;;;;7.13;5.40;;;;;;;17.00;100.00;101574.97;5012226;28;20029;-86
2022/09/06 00:45:04;;;;;;;5.57;4.93;;;;;;;16.94;100.00;101579.59;5011788;28;20022;-86
2022/09/06 00:47:29;;;;;;;8.10;5.38;;;;;;;16.90;100.00;101565.00;5011729;28;20053;-86
2022/09/06 00:49:58;;;;;;;7.10;5.53;;;;;;;16.91;100.00;101559.28;5011546;28;20677;-86
2022/09/06 00:54:59;;;;;;;7.38;5.32;;;;;;;16.95;100.00;101544.13;5747377;23;20428;-86
2022/09/06 00:57:27;;;;;;;10.05;5.65;;;;;;;17.01;100.00;101547.59;5018767;28;20033;-86
2022/09/06 00:59:54;;;;;;;7.60;5.40;;;;;;;16.98;100.00;101537.34;5017743;28;20025;-86
2022/09/06 01:02:20;;;;;;;8.13;5.15;;;;;;;16.98;100.00;101523.78;5016337;28;20025;-86
2022/09/06 01:04:47;;;;;;;6.73;5.43;;;;;;;17.00;100.00;101535.16;5014701;28;20037;-86
2022/09/06 01:07:50;;;;;;;5.82;5.22;;;;;;;16.99;100.00;101536.25;5015252;28;20030;-86
2022/09/06 01:10:24;;;;;;;7.50;5.35;;;;;;;17.02;100.00;101535.69;5014755;28;20038;-86
2022/09/06 01:13:10;;;;;;;8.15;5.57;;;;;;;17.02;100.00;101518.66;5011831;28;20037;-86
2022/09/06 01:15:51;;;;;;;7.22;5.18;;;;;;;17.03;100.00;101514.84;5011373;28;20083;-86
2022/09/06 01:18:28;;;;;;;7.40;5.53;;;;;;;16.99;100.00;101511.88;5011172;28;20104;-86
2022/09/06 01:21:02;;;;;;;8.35;5.57;;;;;;;17.00;100.00;101505.38;5011056;28;20029;-86
2022/09/06 01:23:44;;;;;;;10.37;5.77;;;;;;;17.00;100.00;101499.97;5010692;28;20405;-86
2022/09/06 01:26:18;;;;;;;6.90;6.17;;;;;;;16.84;100.00;101484.91;5010693;28;20645;-86
2022/09/06 01:28:45;;;;;;;7.20;5.90;;;;;;;16.86;100.00;101483.56;4992932;28;20405;-86
2022/09/06 01:31:16;;;;;;;8.30;5.68;;;;;;;16.92;100.00;101473.50;5010459;28;20474;-86
2022/09/06 01:34:06;;;;;;;10.35;6.28;;;;;;;16.85;100.00;101460.28;5010602;28;20084;-86
2022/09/06 01:36:38;;;;;;;6.95;6.00;;;;;;;16.86;100.00;101442.16;4993469;28;20064;-86
2022/09/06 01:39:03;;;;;;;8.55;5.93;;;;;;;16.84;100.00;101422.69;5010330;28;20026;-86
2022/09/06 01:41:29;;;;;;;8.97;6.03;;;;;;;16.79;100.00;101416.25;5010386;28;20128;-86
2022/09/06 01:43:56;;;;;;;8.50;6.25;;;;;;;16.73;100.00;101408.44;5010336;28;20068;-86
2022/09/06 01:46:43;;;;;;;8.45;5.85;;;;;;;16.68;100.00;101397.69;5010568;28;20034;-86
2022/09/06 01:49:39;;;;;;;6.70;6.00;;;;;;;16.71;100.00;101392.50;5010219;28;20372;-86
2022/09/06 01:52:21;;;;;;;10.50;6.60;;;;;;;16.71;100.00;101388.97;5010436;28;20034;-86
2022/09/06 01:55:08;;;;;;;8.40;6.55;;;;;;;16.67;100.00;101363.59;5010298;28;20054;-85
2022/09/06 01:57:42;;;;;;;9.40;6.60;;;;;;;16.62;100.00;101349.03;5010446;28;20397;-86
2022/09/06 02:00:12;;;;;;;7.43;6.50;;;;;;;16.63;100.00;101349.81;5009656;28;20045;-86
2022/09/06 02:03:06;;;;;;;7.57;6.60;;;;;;;16.58;100.00;101345.28;4992970;28;20289;-85
2022/09/06 02:05:41;;;;;;;9.15;6.97;;;;;;;16.51;100.00;101320.47;5010284;28;20026;-85
2022/09/06 02:08:24;;;;;;;7.72;6.78;;;;;;;16.50;100.00;101322.34;5009949;28;20482;-86
2022/09/06 02:10:58;;;;;;;9.65;7.28;;;;;;;16.55;100.00;101320.69;5009326;28;20018;-85
2022/09/06 02:13:26;;;;;;;12.05;6.72;;;;;;;16.52;100.00;101311.25;5010369;28;20026;-86
2022/09/06 02:15:57;;;;;;;11.02;7.30;;;;;;;16.49;100.00;101377.53;5009908;28;20381;-86
2022/09/06 02:18:35;;;;;;;10.70;7.75;;;;;;;16.54;100.00;101373.19;5010140;28;20343;-86
2022/09/06 02:21:02;;;;;;;11.32;7.43;;;;;;;16.46;100.00;101332.13;5009366;28;20030;-86
2022/09/06 02:23:33;;;;;;;8.30;6.40;;;;;;;16.47;100.00;101341.84;5010381;28;20035;-86
2022/09/06 02:26:09;;;;;;;6.90;5.47;;;;;;;16.46;100.00;101366.50;5011838;28;20036;-86
2022/09/06 02:28:35;;;;;;;7.50;6.50;;;;;;;16.40;100.00;101351.41;5014299;28;20343;-86
2022/09/06 02:31:05;;;;;;;10.15;6.45;;;;;;;16.44;100.00;101363.25;5013721;28;20042;-87
2022/09/06 02:33:33;;;;;;;9.77;6.47;;;;;;;16.39;100.00;101368.72;4995836;28;20033;-86
2022/09/06 02:36:04;;;;;;;8.53;6.17;;;;;;;16.32;100.00;101358.22;5013883;28;20044;-86
2022/09/06 02:38:32;;;;;;;7.17;6.50;;;;;;;16.32;100.00;101352.81;5013674;28;20269;-86
2022/09/06 02:40:58;;;;;;;6.72;6.03;;;;;;;16.37;100.00;101351.97;5013555;28;20022;-86
2022/09/06 02:43:25;;;;;;;7.28;5.90;;;;;;;16.33;100.00;101351.72;5013982;28;20033;-86
2022/09/06 02:45:51;;;;;;;7.40;6.03;;;;;;;16.22;100.00;101339.41;5013709;28;20026;-87
2022/09/06 02:48:16;;;;;;;7.57;5.90;;;;;;;16.21;100.00;101352.09;5013794;28;20036;-86
2022/09/06 02:50:41;;;;;;;8.60;6.73;;;;;;;16.14;100.00;101357.81;5013485;28;20044;-86
2022/09/06 02:53:12;;;;;;;8.90;6.80;;;;;;;16.04;100.00;101366.03;5012454;28;20289;-86
2022/09/06 02:55:37;;;;;;;10.25;6.50;;;;;;;15.96;100.00;101355.81;5012166;28;20456;-86
2022/09/06 02:58:05;;;;;;;8.50;6.30;;;;;;;15.97;100.00;101365.53;5013201;28;20021;-86
2022/09/06 03:00:31;;;;;;;8.15;6.22;;;;;;;15.96;100.00;101358.50;5013277;28;20037;-86
2022/09/06 03:02:56;;;;;;;8.82;6.50;;;;;;;15.90;100.00;101358.53;5013471;28;20026;-86
2022/09/06 03:05:23;;;;;;;7.37;6.60;;;;;;;16.04;100.00;101369.53;5013304;28;20076;-87
2022/09/06 03:07:48;;;;;;;8.35;7.13;;;;;;;16.05;100.00;101373.03;5013476;28;20026;-87
2022/09/06 03:10:14;;;;;;;7.10;6.40;;;;;;;16.02;100.00;101363.59;5012713;28;20030;-86
2022/09/06 03:12:42;;;;;;;10.73;7.25;;;;;;;16.19;100.00;101373.19;5013517;28;20026;-87
2022/09/06 03:15:07;;;;;;;8.50;7.23;;;;;;;16.30;100.00;101374.75;5013142;28;20034;-87
2022/09/06 03:17:33;;;;;;;7.40;6.40;;;;;;;16.29;100.00;101358.78;5013399;28;20269;-86
2022/09/06 03:19:58;;;;;;;9.13;6.87;;;;;;;16.32;100.00;101363.63;5012554;28;20323;-87
2022/09/06 03:22:23;;;;;;;7.60;6.80;;;;;;;16.23;100.00;101349.13;4995698;28;20041;-86
2022/09/06 03:24:49;;;;;;;7.40;6.03;;;;;;;16.31;100.00;101362.84;5012742;28;20113;-86
2022/09/06 03:27:14;;;;;;;6.87;6.17;;;;;;;16.18;100.00;101350.78;5013266;28;20033;-86
2022/09/06 03:29:40;;;;;;;6.67;5.97;;;;;;;16.24;100.00;101359.63;5012909;28;20026;-86
2022/09/06 03:32:05;;;;;;;7.78;6.00;;;;;;;16.21;100.00;101354.78;5012222;28;20021;-86
2022/09/06 03:34:30;;;;;;;7.40;6.70;;;;;;;16.16;100.00;101347.53;5012912;28;20029;-87
2022/09/06 03:36:55;;;;;;;7.83;6.57;;;;;;;16.18;100.00;101358.88;5012564;28;20038;-86
2022/09/06 03:39:21;;;;;;;7.80;6.30;;;;;;;16.22;100.00;101364.53;5013168;28;20148;-86
2022/09/06 03:41:46;;;;;;;6.90;6.07;;;;;;;16.13;100.00;101356.22;5012495;28;20022;-87
2022/09/06 03:44:11;;;;;;;6.67;6.07;;;;;;;16.05;100.00;101352.22;5012653;28;20502;-86
2022/09/06 03:46:37;;;;;;;9.17;6.13;;;;;;;16.08;100.00;101363.56;5012398;28;20046;-86
2022/09/06 03:49:02;;;;;;;8.52;6.65;;;;;;;15.97;100.00;101352.00;5012454;28;20033;-86
2022/09/06 03:51:27;;;;;;;7.10;6.37;;;;;;;15.98;100.00;101367.94;5012012;28;20022;-86
2022/09/06 03:53:53;;;;;;;11.50;7.10;;;;;;;15.92;100.00;101373.66;5012082;28;20033;-86
2022/09/06 03:56:21;;;;;;;9.00;7.20;;;;;;;15.81;100.00;101357.50;5012571;28;20034;-86
2022/09/06 03:58:46;;;;;;;10.38;7.38;;;;;;;15.79;100.00;101365.06;4995173;28;20172;-86
2022/09/06 04:01:12;;;;;;;7.57;6.67;;;;;;;15.82;100.00;101364.50;5012101;28;20030;-86
2022/09/06 04:03:38;;;;;;;7.97;7.18;;;;;;;15.86;100.00;101370.19;5012532;28;20120;-86
2022/09/06 04:06:05;;;;;;;9.90;7.70;;;;;;;15.78;100.00;101368.06;5013744;28;20026;-86
2022/09/06 04:08:31;;;;;;;8.35;6.97;;;;;;;15.71;100.00;101360.25;5011999;28;20076;-86
2022/09/06 04:10:58;;;;;;;7.75;6.95;;;;;;;15.74;100.00;101375.91;5011594;28;20488;-87
2022/09/06 04:13:25;;;;;;;9.32;7.28;;;;;;;15.66;100.00;101373.81;5012121;28;20032;-86
2022/09/06 04:15:51;;;;;;;7.90;7.05;;;;;;;15.64;100.00;101376.75;5012027;28;20055;-86
2022/09/06 04:18:17;;;;;;;10.85;8.07;;;;;;;15.66;100.00;101377.28;5012178;28;20033;-86
2022/09/06 04:20:46;;;;;;;10.82;8.00;;;;;;;15.59;100.00;101377.59;5011706;28;20033;-86
2022/09/06 04:23:11;;;;;;;9.67;7.70;;;;;;;15.57;100.00;101387.88;5011820;28;20029;-86
2022/09/06 04:25:36;;;;;;;10.70;7.50;;;;;;;15.48;100.00;101386.84;5012119;28;20289;-86
2022/09/06 04:28:02;;;;;;;9.03;7.57;;;;;;;15.48;100.00;101394.97;5011545;28;20073;-86
2022/09/06 04:30:27;;;;;;;10.40;7.00;;;;;;;15.38;100.00;101398.50;5011590;28;20033;-86
2022/09/06 04:32:53;;;;;;;8.63;7.43;;;;;;;15.37;100.00;101396.91;5011313;28;20032;-86
2022/09/06 04:35:18;;;;;;;9.88;7.68;;;;;;;15.34;100.00;101396.66;5011733;28;20028;-86
2022/09/06 04:37:43;;;;;;;8.20;7.40;;;;;;;15.31;100.00;101397.19;5012001;28;20076;-86
2022/09/06 04:40:09;;;;;;;9.77;7.30;;;;;;;15.25;100.00;101390.97;5010963;28;20029;-86
2022/09/06 04:42:34;;;;;;;8.80;7.83;;;;;;;15.17;100.00;101381.56;5011851;28;20026;-86
2022/09/06 04:45:00;;;;;;;9.10;8.17;;;;;;;15.17;100.00;101384.25;5011137;28;20311;-86
2022/09/06 04:47:25;;;;;;;9.07;8.07;;;;;;;15.16;100.00;101377.25;5011047;28;20113;-86
2022/09/06 04:49:51;;;;;;;10.80;8.23;;;;;;;15.17;100.00;101388.88;5010824;28;20465;-86
2022/09/06 04:52:16;;;;;;;9.70;8.07;;;;;;;15.07;100.00;101387.00;5011573;28;20053;-87
2022/09/06 04:54:42;;;;;;;15.37;9.57;;;;;;;15.11;100.00;101402.38;5011432;28;20113;-87
2022/09/06 04:57:07;;;;;;;10.80;9.00;;;;;;;15.09;100.00;101391.03;5011232;28;20076;-86
2022/09/06 04:59:33;;;;;;;11.73;8.47;;;;;;;15.08;100.00;101399.41;5011653;28;20466;-87
2022/09/06 05:01:59;;;;;;;13.10;9.65;;;;;;;15.08;100.00;101388.63;5010548;28;20045;-87
2022/09/06 05:04:24;;;;;;;14.20;9.70;;;;;;;15.16;100.00;101390.75;4993881;28;20029;-86
2022/09/06 05:07:03;;;;;;;13.55;9.60;;;;;;;15.07;100.00;101379.69;5010889;28;20030;-86
2022/09/06 05:09:28;;;;;;;12.80;10.07;;;;;;;15.09;100.00;101384.84;5011289;28;20481;-86
2022/09/06 05:11:56;;;;;;;13.87;10.33;;;;;;;15.13;100.00;101388.63;5010183;28;20269;-87
2022/09/06 05:14:22;;;;;;;10.77;9.38;;;;;;;15.20;100.00;101397.22;5011127;28;20133;-86
2022/09/06 05:16:48;;;;;;;13.67;10.40;;;;;;;15.11;100.00;101382.69;5010513;28;20486;-87
2022/09/06 05:19:14;;;;;;;11.80;10.00;;;;;;;15.20;100.00;101397.22;4993495;28;20026;-87
2022/09/06 05:21:39;;;;;;;13.33;10.50;;;;;;;15.26;100.00;101396.13;5010630;28;20026;-86
2022/09/06 05:24:06;;;;;;;20.27;11.25;;;;;;;15.31;100.00;101405.28;5011120;28;20030;-87
2022/09/06 05:26:31;;;;;;;15.18;10.43;;;;;;;15.33;100.00;101406.63;5010738;28;20024;-87
2022/09/06 05:28:57;;;;;;;13.83;10.53;;;;;;;15.39;100.00;101402.00;5010601;28;20034;-87
2022/09/06 05:31:30;;;;;;;12.57;9.83;;;;;;;15.38;100.00;101405.78;5010399;28;20018;-86
2022/09/06 05:33:57;;;;;;;14.30;10.35;;;;;;;15.38;100.00;101401.22;4992307;28;20040;-87
2022/09/06 05:36:23;;;;;;;14.50;10.30;;;;;;;15.37;100.00;101396.06;5011010;28;20021;-86
2022/09/06 05:38:53;;;;;;;12.48;10.15;;;;;;;15.39;100.00;101400.13;5009887;28;20019;-86
2022/09/06 05:41:19;;;;;;;13.37;10.23;;;;;;;15.42;100.00;101394.19;5010429;28;20058;-87
2022/09/06 05:43:44;;;;;;;12.33;10.37;;;;;;;15.51;100.00;101404.38;5010450;28;20319;-87
2022/09/06 05:46:10;;;;;;;13.82;11.10;;;;;;;15.55;100.00;101403.53;5010470;28;20026;-87
2022/09/06 05:48:36;;;;;;;13.07;10.70;;;;;;;15.59;100.00;101404.63;5010442;28;20026;-86
2022/09/06 05:51:06;;;;;;;18.83;11.95;;;;;;;15.68;100.00;101402.13;5009963;28;20038;-86
2022/09/06 05:53:33;;;;;;;15.63;12.63;;;;;;;15.69;100.00;101409.16;5010445;28;20026;-86
2022/09/06 05:55:59;;;;;;;16.17;12.30;;;;;;;15.69;100.00;101401.06;5010417;28;20025;-86
2022/09/06 05:58:24;;;;;;;17.33;12.90;;;;;;;15.74;100.00;101405.63;5009990;28;20273;-87
2022/09/06 06:00:49;;;;;;;17.23;12.10;;;;;;;15.73;100.00;101404.00;5008800;28;20474;-87
2022/09/06 06:03:14;;;;;;;14.93;11.00;;;;;;;15.82;100.00;101399.63;5010708;28;20080;-86
2022/09/06 06:05:45;;;;;;;15.17;12.10;;;;;;;15.83;100.00;101400.44;5010212;28;20057;-87
2022/09/06 06:08:11;;;;;;;15.05;12.07;;;;;;;15.87;100.00;101396.13;5010063;28;20057;-87
2022/09/06 06:10:38;;;;;;;15.97;11.50;;;;;;;15.95;100.00;101413.63;5009848;28;20049;-87
2022/09/06 06:13:03;;;;;;;15.32;11.25;;;;;;;15.90;100.00;101396.38;5010019;28;20026;-86
2022/09/06 06:15:28;;;;;;;15.77;11.03;;;;;;;16.03;100.00;101407.66;5010138;28;20176;-86
2022/09/06 06:17:54;;;;;;;15.47;11.37;;;;;;;16.04;100.00;101409.28;5010104;28;20037;-86
2022/09/06 06:20:19;;;;;;;14.53;10.57;;;;;;;16.09;100.00;101411.91;5009498;28;20017;-86
2022/09/06 06:22:44;;;;;;;15.20;11.55;;;;;;;16.17;100.00;101411.34;5010643;28;20041;-86
2022/09/06 06:25:10;;;;;;;12.03;10.47;;;;;;;16.19;100.00;101413.75;4992018;28;20133;-86
2022/09/06 06:27:35;;;;;;;12.30;10.60;;;;;;;16.27;100.00;101412.34;5009876;28;20026;-86
2022/09/06 06:30:01;;;;;;;13.43;10.80;;;;;;;16.31;100.00;101408.81;5008968;28;20386;-87
2022/09/06 06:32:26;;;;;;;12.97;8.97;;;;;;;16.42;100.00;101409.53;5009744;28;20188;-87
2022/09/06 06:34:52;;;;;;;11.13;9.93;;;;;;;16.47;100.00;101406.75;5009839;28;20033;-86
2022/09/06 06:37:17;;;;;;;12.17;9.63;;;;;;;16.52;100.00;101394.28;5009812;28;20030;-86
2022/09/06 06:39:42;;;;;;;12.80;9.20;;;;;;;16.59;100.00;101392.06;4992304;28;20041;-86
2022/09/06 06:42:08;;;;;;;16.77;10.00;;;;;;;16.67;100.00;101388.75;5009259;28;20026;-87
2022/09/06 06:44:33;;;;;;;12.50;9.10;;;;;;;16.75;100.00;101379.19;5010285;28;20044;-87
2022/09/06 06:47:00;;;;;;;11.23;9.07;;;;;;;16.90;100.00;101400.69;5009415;28;20038;-86
2022/09/06 06:49:27;;;;;;;10.95;9.48;;;;;;;16.98;100.00;101401.97;4992073;28;20026;-86
2022/09/06 06:51:52;;;;;;;13.65;9.50;;;;;;;17.09;100.00;101395.38;5008918;28;20104;-87
2022/09/06 06:54:18;;;;;;;13.10;8.63;;;;;;;17.14;100.00;101391.00;5009739;28;20145;-87
2022/09/06 06:56:46;;;;;;;11.83;8.93;;;;;;;17.26;100.00;101402.22;5009458;28;20052;-86
2022/09/06 06:59:13;;;;;;;11.10;8.05;;;;;;;17.34;100.00;101406.19;5009526;28;20553;-87
2022/09/06 07:01:38;;;;;;;12.30;8.55;;;;;;;17.36;100.00;101401.31;4991746;28;20080;-87
2022/09/06 07:04:04;;;;;;;11.20;7.90;;;;;;;17.44;100.00;101408.75;5009395;28;20556;-86
2022/09/06 07:06:30;;;;;;;9.70;7.57;;;;;;;17.45;100.00;101401.47;5009817;28;20326;-86
2022/09/06 07:08:57;;;;;;;15.23;7.45;;;;;;;17.51;100.00;101409.22;5009196;28;20149;-86
2022/09/06 07:11:22;;;;;;;11.15;7.70;;;;;;;17.57;100.00;101399.13;5010497;28;20646;-86
2022/09/06 07:13:47;;;;;;;10.20;7.60;;;;;;;17.68;100.00;101399.81;5012868;28;20122;-86
2022/09/06 07:21:26;;;;;;;11.15;7.35;;;;;;;17.77;100.00;101365.53;1455858;26;20053;-86
2022/09/06 07:23:53;;;;;;;9.57;7.28;;;;;;;17.95;100.00;101388.28;5032511;28;20461;-87
2022/09/06 07:26:24;;;;;;;11.07;8.07;;;;;;;18.07;100.00;101400.66;5033237;28;20034;-87
2022/09/06 07:28:58;;;;;;;11.50;7.82;;;;;;;18.21;100.00;101406.94;5032547;28;20025;-86
2022/09/06 07:31:23;;;;;;;10.57;6.95;;;;;;;18.22;100.00;101394.97;5032604;28;20044;-86
2022/09/06 07:33:49;;;;;;;14.43;7.40;;;;;;;18.36;100.00;101402.34;5031882;28;20022;-87
2022/09/06 07:36:15;;;;;;;8.18;7.22;;;;;;;18.44;100.00;101399.75;5032920;28;20091;-86
2022/09/06 07:38:41;;;;;;;8.10;7.20;;;;;;;18.55;100.00;101403.09;5032806;28;20029;-86
2022/09/06 07:41:08;;;;;;;13.85;6.78;;;;;;;18.65;99.53;101406.72;5032187;28;20049;-86
2022/09/06 07:43:34;;;;;;;8.70;7.15;;;;;;;18.73;98.44;101403.34;5032760;28;20018;-86
2022/09/06 07:46:13;;;;;;;9.20;6.70;;;;;;;18.80;97.93;101411.09;5032221;28;20039;-86
2022/09/06 07:48:40;;;;;;;12.13;6.47;;;;;;;18.90;97.95;101405.47;5032863;28;20466;-86
2022/09/06 07:51:12;;;;;;;8.17;6.80;;;;;;;19.02;96.68;101402.28;5031772;28;20797;-87
2022/09/06 07:53:39;;;;;;;8.63;6.47;;;;;;;19.11;95.65;101405.09;5032739;28;20045;-87
2022/09/06 07:56:11;;;;;;;12.93;6.35;;;;;;;19.20;95.71;101403.31;5032162;28;20052;-87
2022/09/06 07:58:39;;;;;;;8.70;5.72;;;;;;;19.20;94.83;101397.88;5032730;28;20018;-86
2022/09/06 08:01:26;;;;;;;9.50;6.00;;;;;;;19.34;94.14;101397.88;5030757;28;20029;-86
2022/09/06 08:03:52;;;;;;;7.32;5.80;;;;;;;19.45;93.30;101393.00;5031671;28;20029;-86
2022/09/06 08:06:17;;;;;;;10.93;5.93;;;;;;;19.58;92.44;101396.81;5033101;28;20120;-86
2022/09/06 08:08:43;;;;;;;9.57;5.25;;;;;;;19.67;91.61;101384.13;5032347;28;20021;-87
2022/09/06 08:11:08;;;;;;;9.20;5.13;;;;;;;19.77;89.96;101389.31;5030237;28;20044;-87
2022/09/06 08:13:35;;;;;;;10.30;5.23;;;;;;;19.95;89.73;101395.75;5032952;28;20029;-87
2022/09/06 08:16:06;;;;;;;10.02;5.10;;;;;;;20.08;88.75;101394.09;5031770;28;20485;-87
2022/09/06 08:18:32;;;;;;;7.97;5.00;;;;;;;20.24;88.59;101391.00;5033722;28;20097;-87
2022/09/06 08:21:08;;;;;;;7.38;4.57;;;;;;;20.41;87.89;101390.28;5032425;28;20595;-87
2022/09/06 08:23:34;;;;;;;5.03;4.30;;;;;;;20.69;86.43;101395.56;5031419;28;20029;-87
2022/09/06 08:25:59;;;;;;;8.27;3.85;;;;;;;20.94;84.30;101380.47;5031035;28;20052;-88
2022/09/06 08:28:25;;;;;;;5.27;3.67;;;;;;;21.26;82.06;101392.09;5032933;28;20021;-87
2022/09/06 08:30:50;;;;;;;5.65;3.70;;;;;;;21.36;78.76;101390.22;5040645;28;20121;-87
2022/09/06 08:33:20;;;;;;;4.33;3.30;;;;;;;21.39;79.57;101397.72;5038322;28;20114;-87
2022/09/06 08:35:55;;;;;;;5.18;3.35;;;;;;;21.36;79.03;101390.22;5054322;28;20022;-87
2022/09/06 08:38:23;;;;;;;4.47;3.35;;;;;;;21.45;79.62;101404.66;5034367;28;20466;-87
2022/09/06 08:40:50;;;;;;;6.45;2.63;;;;;;;21.51;78.63;101410.75;5031520;28;20037;-87
2022/09/06 08:43:18;;;;;;;8.23;2.90;;;;;;;21.51;80.07;101416.19;5032244;28;20021;-87
2022/09/06 08:45:49;;;;;;;4.40;2.63;;;;;;;21.38;77.43;101396.13;5032387;28;20033;-87
2022/09/06 08:48:15;;;;;;;5.87;2.43;;;;;;;21.31;74.81;101389.25;5031777;28;20276;-87
2022/09/06 08:50:50;;;;;;;3.85;2.03;;;;;;;21.18;76.36;101362.94;5031413;28;20384;-87
2022/09/06 08:53:18;;;;;;;3.28;2.00;;;;;;;21.29;76.43;101377.84;5031878;28;20025;-87
2022/09/06 08:55:52;;;;;;;2.20;1.75;;;;;;;21.53;76.75;101392.16;5031790;28;20067;-87
2022/09/06 08:58:55;;;;;;;4.38;1.95;;;;;;;21.58;76.70;101390.06;5031391;28;20135;-87
2022/09/06 09:01:31;;;;;;;5.77;2.00;;;;;;;21.65;75.68;101388.81;5029834;28;20164;-86
2022/09/06 09:04:01;;;;;;;8.30;2.20;;;;;;;21.69;74.98;101392.53;5030919;28;20280;-87
2022/09/06 09:06:27;;;;;;;2.47;2.10;;;;;;;21.68;73.43;101385.47;5029998;28;20032;-87
2022/09/06 09:09:12;;;;;;;3.13;1.95;;;;;;;21.81;74.38;101391.91;5031116;28;20026;-87
2022/09/06 09:11:48;;;;;;;4.28;2.00;;;;;;;21.85;75.10;101390.09;5032684;28;20028;-86
2022/09/06 09:14:28;;;;;;;2.67;2.35;;;;;;;21.94;73.82;101388.97;5032985;28;20029;-86
2022/09/06 09:16:58;;;;;;;6.38;2.40;;;;;;;22.00;73.55;101391.56;5031519;28;20022;-87
2022/09/06 09:19:24;;;;;;;6.75;2.20;;;;;;;22.12;73.52;101382.72;5031601;28;20499;-87
2022/09/06 09:21:49;;;;;;;4.07;2.00;;;;;;;22.27;71.49;101379.47;5030774;28;20033;-87
2022/09/06 09:24:14;;;;;;;2.93;1.70;;;;;;;22.35;72.47;101375.13;5031198;28;20025;-88
2022/09/06 09:26:54;;;;;;;4.00;2.13;;;;;;;22.41;71.85;101379.28;5029652;28;20044;-87
2022/09/06 09:29:20;;;;;;;4.37;2.20;;;;;;;22.41;71.14;101373.00;5031543;28;20033;-87
2022/09/06 09:31:48;;;;;;;5.78;2.63;;;;;;;22.49;70.46;101383.94;5030899;28;20060;-86
2022/09/06 09:34:33;;;;;;;4.07;2.30;;;;;;;22.51;70.18;101381.69;5032029;28;20084;-86
2022/09/06 09:37:11;;;;;;;5.47;2.50;;;;;;;22.61;71.13;101383.25;5030216;28;20342;-87
2022/09/06 09:39:38;;;;;;;4.18;2.20;;;;;;;22.69;69.68;101392.56;5033818;28;20032;-87
2022/09/06 09:42:04;;;;;;;6.32;2.33;;;;;;;22.70;68.26;101385.97;5031928;28;20022;-87
2022/09/06 09:44:29;;;;;;;4.93;2.38;;;;;;;22.82;70.02;101388.78;5032346;28;20183;-87
2022/09/06 09:46:55;;;;;;;5.07;2.20;;;;;;;22.93;68.33;101385.72;5031838;28;20107;-87
2022/09/06 09:49:20;;;;;;;2.80;1.83;;;;;;;23.04;68.05;101386.16;5033819;28;20037;-88
2022/09/06 09:52:04;;;;;;;2.90;2.00;;;;;;;23.01;68.83;101373.91;5034876;28;20037;-87
2022/09/06 09:54:32;;;;;;;4.03;2.33;;;;;;;23.19;68.76;101384.78;5033859;28;20029;-87
2022/09/06 09:56:57;;;;;;;7.90;2.47;;;;;;;23.33;68.57;101384.53;5033636;28;20033;-87
2022/09/06 09:59:25;;;;;;;4.87;2.27;;;;;;;23.36;67.10;101373.78;5033393;28;20044;-87
2022/09/06 10:01:54;;;;;;;3.92;2.38;;;;;;;23.49;66.56;101374.63;5031234;28;20033;-87
2022/09/06 10:04:36;;;;;;;3.85;2.13;;;;;;;23.60;67.25;101375.03;5045288;28;20051;-87
2022/09/06 10:07:17;;;;;;;3.65;2.30;;;;;;;23.73;65.60;101367.69;5041441;28;20086;-88
2022/09/06 10:09:46;;;;;;;7.82;2.50;;;;;;;23.84;64.14;101371.59;5032384;28;20040;-88
2022/09/06 10:12:31;;;;;;;3.67;2.45;;;;;;;23.94;65.71;101378.59;5031740;28;20033;-87
2022/09/06 10:14:57;;;;;;;6.05;2.10;;;;;;;23.99;63.65;101383.13;5031263;28;20030;-87
2022/09/06 10:17:25;;;;;;;2.77;2.40;;;;;;;24.13;65.00;101388.28;5031190;28;20226;-87
2022/09/06 10:19:51;;;;;;;4.15;1.88;;;;;;;24.26;64.97;101391.84;5029435;28;20028;-87
2022/09/06 10:22:20;;;;;;;5.50;2.20;;;;;;;24.32;63.71;101391.28;5030329;28;20034;-88
2022/09/06 10:25:13;;;;;;;3.80;2.50;;;;;;;24.39;65.16;101390.75;5030103;28;20049;-88
2022/09/06 10:27:56;;;;;;;8.95;2.60;;;;;;;24.56;63.50;101394.44;5011619;28;20405;-88
2022/09/06 10:30:21;;;;;;;4.70;2.30;;;;;;;24.53;62.96;101365.78;5030191;28;20433;-87
2022/09/06 10:38:24;;;;;;;4.50;2.67;;;;;;;25.00;62.19;101391.97;5897460;23;20054;-88
2022/09/06 10:41:10;;;;;;;5.57;2.90;;;;;;;25.09;61.79;101378.16;5010110;28;20050;-88
2022/09/06 10:43:52;;;;;;;5.00;2.57;;;;;;;25.16;60.94;101389.34;5010589;28;20113;-88
2022/09/06 10:46:23;;;;;;;5.33;2.60;;;;;;;25.23;59.92;101389.56;5011413;28;20387;-88
2022/09/06 10:48:53;;;;;;;4.93;2.55;;;;;;;25.34;59.56;101376.16;5014000;28;20506;-88
2022/09/06 10:51:30;;;;;;;3.47;2.90;;;;;;;25.42;59.02;101379.94;5013458;28;20101;-88
2022/09/06 10:54:04;;;;;;;3.85;2.83;;;;;;;25.50;59.17;101376.28;5014033;28;20457;-88
2022/09/06 10:56:48;;;;;;;5.07;2.70;;;;;;;25.67;60.31;101374.41;4996464;28;20068;-88
2022/09/06 10:59:48;;;;;;;4.72;2.90;;;;;;;25.99;57.90;101377.25;4996623;28;20124;-88
2022/09/06 11:02:29;;;;;;;6.32;3.22;;;;;;;26.08;57.14;101380.63;5014016;28;20033;-88
2022/09/06 11:05:00;;;;;;;6.53;3.03;;;;;;;26.10;57.09;101378.34;4996296;28;20093;-88
2022/09/06 11:07:36;;;;;;;4.75;2.85;;;;;;;26.13;56.63;101377.66;5013813;28;20030;-88
2022/09/06 11:10:05;;;;;;;5.30;3.07;;;;;;;26.24;55.71;101382.63;4995702;28;20034;-89
2022/09/06 11:12:51;;;;;;;4.07;2.53;;;;;;;26.48;56.71;101391.88;5013831;28;20287;-89
2022/09/06 11:15:19;;;;;;;6.40;2.90;;;;;;;26.46;55.73;101386.72;5016393;28;20593;-89
2022/09/06 11:18:11;;;;;;;6.50;3.00;;;;;;;26.45;56.53;101394.19;5013816;28;20040;-88
2022/09/06 11:20:49;;;;;;;6.38;3.08;;;;;;;26.61;55.78;101396.16;5013509;28;20026;-89
2022/09/06 11:23:39;;;;;;;3.38;2.55;;;;;;;26.94;55.39;101408.75;4995709;28;20481;-89
2022/09/06 11:26:21;;;;;;;6.60;2.95;;;;;;;27.18;53.00;101406.94;5013615;28;20386;-89
2022/09/06 11:28:52;;;;;;;5.97;3.10;;;;;;;27.35;52.68;101403.78;5013671;28;20026;-89
2022/09/06 11:31:30;;;;;;;7.60;3.15;;;;;;;27.33;52.72;101408.84;5013571;28;20022;-89
2022/09/06 11:34:11;;;;;;;3.65;2.60;;;;;;;27.32;51.87;101409.19;4996240;28;20022;-89
2022/09/06 11:36:48;;;;;;;4.00;2.70;;;;;;;27.32;52.66;101409.19;5013792;28;20034;-90
2022/09/06 11:39:41;;;;;;;5.23;3.10;;;;;;;27.26;50.53;101407.88;5013519;28;20367;-90
2022/09/06 11:42:45;;;;;;;4.22;2.83;;;;;;;27.35;51.29;101412.03;5013328;28;20022;-90